sensor_id;sensor_type;location;lat;lon;timestamp;P1;durP1;ratioP1;P2;durP2;ratioP2
15246;SDS011;7726;48.820;9.248;2023-04-15T00:00:06;10.00;;;3.93;;
15246;SDS011;7726;48.820;9.248;2023-04-15T00:02:34;6.97;;;4.17;;
15246;SDS011;7726;48.820;9.248;2023-04-15T00:05:01;4.43;;;3.30;;
15246;SDS011;7726;48.820;9.248;2023-04-15T00:07:30;6.30;;;4.10;;
15246;SDS011;7726;48.820;9.248;2023-04-15T00:09:57;5.53;;;3.17;;
15246;SDS011;7726;48.820;9.248;2023-04-15T00:12:24;8.40;;;3.80;;
15246;SDS011;7726;48.820;9.248;2023-04-15T00:14:52;6.93;;;3.50;;
15246;SDS011;7726;48.820;9.248;2023-04-15T00:17:21;6.07;;;3.73;;
15246;SDS011;7726;48.820;9.248;2023-04-15T00:19:48;4.70;;;3.57;;
15246;SDS011;7726;48.820;9.248;2023-04-15T00:22:15;7.97;;;3.73;;
15246;SDS011;7726;48.820;9.248;2023-04-15T00:24:44;6.67;;;3.93;;
15246;SDS011;7726;48.820;9.248;2023-04-15T00:27:11;5.90;;;3.93;;
15246;SDS011;7726;48.820;9.248;2023-04-15T00:29:39;9.47;;;4.37;;
15246;SDS011;7726;48.820;9.248;2023-04-15T00:32:06;4.77;;;3.50;;
15246;SDS011;7726;48.820;9.248;2023-04-15T00:34:33;6.60;;;3.43;;
15246;SDS011;7726;48.820;9.248;2023-04-15T00:37:00;5.10;;;3.50;;
15246;SDS011;7726;48.820;9.248;2023-04-15T00:39:28;4.37;;;3.43;;
15246;SDS011;7726;48.820;9.248;2023-04-15T00:41:56;5.77;;;3.33;;
15246;SDS011;7726;48.820;9.248;2023-04-15T00:44:23;6.27;;;4.57;;
15246;SDS011;7726;48.820;9.248;2023-04-15T00:46:51;7.40;;;4.40;;
15246;SDS011;7726;48.820;9.248;2023-04-15T00:49:18;8.50;;;3.87;;
15246;SDS011;7726;48.820;9.248;2023-04-15T00:51:45;7.83;;;5.43;;
15246;SDS011;7726;48.820;9.248;2023-04-15T00:54:12;6.40;;;3.50;;
15246;SDS011;7726;48.820;9.248;2023-04-15T00:56:40;6.27;;;3.77;;
15246;SDS011;7726;48.820;9.248;2023-04-15T00:59:09;8.00;;;3.83;;
15246;SDS011;7726;48.820;9.248;2023-04-15T01:01:36;7.93;;;3.80;;
15246;SDS011;7726;48.820;9.248;2023-04-15T01:04:03;5.93;;;3.47;;
15246;SDS011;7726;48.820;9.248;2023-04-15T01:06:31;6.17;;;3.40;;
15246;SDS011;7726;48.820;9.248;2023-04-15T01:08:58;7.00;;;3.47;;
15246;SDS011;7726;48.820;9.248;2023-04-15T01:11:26;5.77;;;3.67;;
15246;SDS011;7726;48.820;9.248;2023-04-15T01:13:54;7.80;;;4.73;;
15246;SDS011;7726;48.820;9.248;2023-04-15T01:16:23;4.70;;;3.87;;
15246;SDS011;7726;48.820;9.248;2023-04-15T01:18:50;8.83;;;4.00;;
15246;SDS011;7726;48.820;9.248;2023-04-15T01:21:18;6.53;;;4.63;;
15246;SDS011;7726;48.820;9.248;2023-04-15T01:23:46;5.73;;;3.40;;
15246;SDS011;7726;48.820;9.248;2023-04-15T01:26:15;5.13;;;3.10;;
15246;SDS011;7726;48.820;9.248;2023-04-15T01:28:42;4.67;;;3.30;;
15246;SDS011;7726;48.820;9.248;2023-04-15T01:31:09;4.50;;;3.40;;
15246;SDS011;7726;48.820;9.248;2023-04-15T01:33:37;6.87;;;3.57;;
15246;SDS011;7726;48.820;9.248;2023-04-15T01:36:05;5.63;;;3.53;;
15246;SDS011;7726;48.820;9.248;2023-04-15T01:38:34;6.47;;;3.70;;
15246;SDS011;7726;48.820;9.248;2023-04-15T01:41:01;7.80;;;4.27;;
15246;SDS011;7726;48.820;9.248;2023-04-15T01:43:30;8.63;;;4.00;;
15246;SDS011;7726;48.820;9.248;2023-04-15T01:45:57;6.50;;;4.43;;
15246;SDS011;7726;48.820;9.248;2023-04-15T01:48:24;6.37;;;3.97;;
15246;SDS011;7726;48.820;9.248;2023-04-15T01:50:53;6.53;;;4.00;;
15246;SDS011;7726;48.820;9.248;2023-04-15T01:53:21;8.17;;;4.00;;
15246;SDS011;7726;48.820;9.248;2023-04-15T01:55:48;6.00;;;3.60;;
15246;SDS011;7726;48.820;9.248;2023-04-15T01:58:16;4.83;;;3.40;;
15246;SDS011;7726;48.820;9.248;2023-04-15T02:00:45;7.13;;;3.93;;
15246;SDS011;7726;48.820;9.248;2023-04-15T02:03:12;4.73;;;3.80;;
15246;SDS011;7726;48.820;9.248;2023-04-15T02:05:39;8.10;;;3.77;;
15246;SDS011;7726;48.820;9.248;2023-04-15T02:08:06;5.60;;;3.43;;
15246;SDS011;7726;48.820;9.248;2023-04-15T02:10:33;6.37;;;4.10;;
15246;SDS011;7726;48.820;9.248;2023-04-15T02:13:00;5.67;;;4.00;;
15246;SDS011;7726;48.820;9.248;2023-04-15T02:15:28;6.47;;;4.00;;
15246;SDS011;7726;48.820;9.248;2023-04-15T02:17:56;5.43;;;4.00;;
15246;SDS011;7726;48.820;9.248;2023-04-15T02:20:24;8.10;;;4.13;;
15246;SDS011;7726;48.820;9.248;2023-04-15T02:22:51;7.97;;;4.33;;
15246;SDS011;7726;48.820;9.248;2023-04-15T02:25:19;6.40;;;4.93;;
15246;SDS011;7726;48.820;9.248;2023-04-15T02:27:46;5.97;;;4.43;;
15246;SDS011;7726;48.820;9.248;2023-04-15T02:30:13;7.27;;;4.53;;
15246;SDS011;7726;48.820;9.248;2023-04-15T02:32:41;6.30;;;4.17;;
15246;SDS011;7726;48.820;9.248;2023-04-15T02:35:10;5.80;;;3.73;;
15246;SDS011;7726;48.820;9.248;2023-04-15T02:37:37;6.40;;;4.30;;
15246;SDS011;7726;48.820;9.248;2023-04-15T02:40:07;7.83;;;4.30;;
15246;SDS011;7726;48.820;9.248;2023-04-15T02:42:36;6.27;;;4.10;;
15246;SDS011;7726;48.820;9.248;2023-04-15T02:45:03;8.37;;;5.07;;
15246;SDS011;7726;48.820;9.248;2023-04-15T02:47:31;8.73;;;4.57;;
15246;SDS011;7726;48.820;9.248;2023-04-15T02:49:58;8.50;;;4.33;;
15246;SDS011;7726;48.820;9.248;2023-04-15T02:52:27;7.37;;;4.50;;
15246;SDS011;7726;48.820;9.248;2023-04-15T02:54:54;9.63;;;4.97;;
15246;SDS011;7726;48.820;9.248;2023-04-15T02:57:24;8.17;;;5.13;;
15246;SDS011;7726;48.820;9.248;2023-04-15T02:59:52;6.80;;;4.60;;
15246;SDS011;7726;48.820;9.248;2023-04-15T03:02:20;6.57;;;4.60;;
15246;SDS011;7726;48.820;9.248;2023-04-15T03:04:47;7.03;;;4.30;;
15246;SDS011;7726;48.820;9.248;2023-04-15T03:07:14;6.33;;;4.23;;
15246;SDS011;7726;48.820;9.248;2023-04-15T03:09:42;5.60;;;4.00;;
15246;SDS011;7726;48.820;9.248;2023-04-15T03:12:09;7.63;;;4.20;;
15246;SDS011;7726;48.820;9.248;2023-04-15T03:14:37;6.90;;;4.23;;
15246;SDS011;7726;48.820;9.248;2023-04-15T03:17:04;5.57;;;3.33;;
15246;SDS011;7726;48.820;9.248;2023-04-15T03:19:31;5.83;;;3.70;;
15246;SDS011;7726;48.820;9.248;2023-04-15T03:21:58;4.33;;;3.60;;
15246;SDS011;7726;48.820;9.248;2023-04-15T03:24:25;7.17;;;4.00;;
15246;SDS011;7726;48.820;9.248;2023-04-15T03:26:55;5.63;;;3.90;;
15246;SDS011;7726;48.820;9.248;2023-04-15T03:29:22;5.33;;;3.60;;
15246;SDS011;7726;48.820;9.248;2023-04-15T03:31:50;5.30;;;3.17;;
15246;SDS011;7726;48.820;9.248;2023-04-15T03:34:17;6.60;;;3.57;;
15246;SDS011;7726;48.820;9.248;2023-04-15T03:36:45;5.53;;;3.60;;
15246;SDS011;7726;48.820;9.248;2023-04-15T03:39:12;4.70;;;3.93;;
15246;SDS011;7726;48.820;9.248;2023-04-15T03:41:39;7.07;;;3.27;;
15246;SDS011;7726;48.820;9.248;2023-04-15T03:44:08;4.67;;;3.03;;
15246;SDS011;7726;48.820;9.248;2023-04-15T03:46:35;6.73;;;3.30;;
15246;SDS011;7726;48.820;9.248;2023-04-15T03:49:02;7.20;;;4.10;;
15246;SDS011;7726;48.820;9.248;2023-04-15T03:51:29;5.13;;;3.83;;
15246;SDS011;7726;48.820;9.248;2023-04-15T03:53:56;4.17;;;3.60;;
15246;SDS011;7726;48.820;9.248;2023-04-15T03:56:24;4.37;;;3.63;;
15246;SDS011;7726;48.820;9.248;2023-04-15T03:58:51;3.70;;;3.40;;
15246;SDS011;7726;48.820;9.248;2023-04-15T04:01:19;4.43;;;3.70;;
15246;SDS011;7726;48.820;9.248;2023-04-15T04:03:46;6.73;;;3.97;;
15246;SDS011;7726;48.820;9.248;2023-04-15T04:06:13;5.33;;;3.67;;
15246;SDS011;7726;48.820;9.248;2023-04-15T04:08:41;5.60;;;4.03;;
15246;SDS011;7726;48.820;9.248;2023-04-15T04:11:08;6.10;;;4.00;;
15246;SDS011;7726;48.820;9.248;2023-04-15T04:13:35;5.90;;;3.80;;
15246;SDS011;7726;48.820;9.248;2023-04-15T04:16:02;8.90;;;4.37;;
15246;SDS011;7726;48.820;9.248;2023-04-15T04:18:31;4.97;;;3.83;;
15246;SDS011;7726;48.820;9.248;2023-04-15T04:20:58;6.80;;;4.47;;
15246;SDS011;7726;48.820;9.248;2023-04-15T04:23:26;6.23;;;4.70;;
15246;SDS011;7726;48.820;9.248;2023-04-15T04:25:53;6.50;;;4.53;;
15246;SDS011;7726;48.820;9.248;2023-04-15T04:28:20;6.13;;;4.30;;
15246;SDS011;7726;48.820;9.248;2023-04-15T04:30:47;8.50;;;4.63;;
15246;SDS011;7726;48.820;9.248;2023-04-15T04:33:14;6.53;;;3.70;;
15246;SDS011;7726;48.820;9.248;2023-04-15T04:35:43;6.00;;;4.37;;
15246;SDS011;7726;48.820;9.248;2023-04-15T04:38:10;6.77;;;4.40;;
15246;SDS011;7726;48.820;9.248;2023-04-15T04:40:37;5.63;;;4.43;;
15246;SDS011;7726;48.820;9.248;2023-04-15T04:43:05;8.97;;;3.90;;
15246;SDS011;7726;48.820;9.248;2023-04-15T04:45:32;7.70;;;4.70;;
15246;SDS011;7726;48.820;9.248;2023-04-15T04:47:59;4.87;;;4.10;;
15246;SDS011;7726;48.820;9.248;2023-04-15T04:50:26;6.27;;;4.70;;
15246;SDS011;7726;48.820;9.248;2023-04-15T04:52:55;6.57;;;4.53;;
15246;SDS011;7726;48.820;9.248;2023-04-15T04:55:22;6.40;;;4.67;;
15246;SDS011;7726;48.820;9.248;2023-04-15T04:57:49;6.97;;;4.67;;
15246;SDS011;7726;48.820;9.248;2023-04-15T05:00:17;8.33;;;4.90;;
15246;SDS011;7726;48.820;9.248;2023-04-15T05:02:44;8.43;;;4.70;;
15246;SDS011;7726;48.820;9.248;2023-04-15T05:05:11;8.80;;;4.60;;
15246;SDS011;7726;48.820;9.248;2023-04-15T05:07:39;6.80;;;4.60;;
15246;SDS011;7726;48.820;9.248;2023-04-15T05:10:08;6.57;;;4.87;;
15246;SDS011;7726;48.820;9.248;2023-04-15T05:12:35;7.83;;;4.83;;
15246;SDS011;7726;48.820;9.248;2023-04-15T05:15:02;12.53;;;5.13;;
15246;SDS011;7726;48.820;9.248;2023-04-15T05:17:30;9.43;;;5.00;;
15246;SDS011;7726;48.820;9.248;2023-04-15T05:19:59;8.67;;;4.90;;
15246;SDS011;7726;48.820;9.248;2023-04-15T05:22:26;6.20;;;4.40;;
15246;SDS011;7726;48.820;9.248;2023-04-15T05:24:53;8.07;;;4.80;;
15246;SDS011;7726;48.820;9.248;2023-04-15T05:27:22;4.53;;;4.07;;
15246;SDS011;7726;48.820;9.248;2023-04-15T05:29:49;7.63;;;4.87;;
15246;SDS011;7726;48.820;9.248;2023-04-15T05:32:16;7.73;;;4.73;;
15246;SDS011;7726;48.820;9.248;2023-04-15T05:34:43;5.40;;;4.03;;
15246;SDS011;7726;48.820;9.248;2023-04-15T05:37:11;4.93;;;4.03;;
15246;SDS011;7726;48.820;9.248;2023-04-15T05:39:38;8.33;;;4.40;;
15246;SDS011;7726;48.820;9.248;2023-04-15T05:42:05;7.23;;;3.83;;
15246;SDS011;7726;48.820;9.248;2023-04-15T05:44:33;6.87;;;4.37;;
15246;SDS011;7726;48.820;9.248;2023-04-15T05:47:00;7.73;;;4.47;;
15246;SDS011;7726;48.820;9.248;2023-04-15T05:49:28;7.27;;;4.00;;
15246;SDS011;7726;48.820;9.248;2023-04-15T05:51:56;8.63;;;4.63;;
15246;SDS011;7726;48.820;9.248;2023-04-15T05:54:23;6.57;;;4.43;;
15246;SDS011;7726;48.820;9.248;2023-04-15T05:56:51;8.73;;;4.37;;
15246;SDS011;7726;48.820;9.248;2023-04-15T05:59:19;5.77;;;4.03;;
15246;SDS011;7726;48.820;9.248;2023-04-15T06:01:47;6.73;;;4.17;;
15246;SDS011;7726;48.820;9.248;2023-04-15T06:04:16;6.93;;;4.23;;
15246;SDS011;7726;48.820;9.248;2023-04-15T06:06:43;6.00;;;4.00;;
15246;SDS011;7726;48.820;9.248;2023-04-15T06:09:10;7.47;;;4.43;;
15246;SDS011;7726;48.820;9.248;2023-04-15T06:11:37;5.97;;;3.90;;
15246;SDS011;7726;48.820;9.248;2023-04-15T06:14:05;9.03;;;4.43;;
15246;SDS011;7726;48.820;9.248;2023-04-15T06:16:32;6.20;;;4.23;;
15246;SDS011;7726;48.820;9.248;2023-04-15T06:19:01;6.87;;;3.93;;
15246;SDS011;7726;48.820;9.248;2023-04-15T06:21:29;5.80;;;3.90;;
15246;SDS011;7726;48.820;9.248;2023-04-15T06:23:57;9.10;;;4.40;;
15246;SDS011;7726;48.820;9.248;2023-04-15T06:26:25;4.43;;;3.70;;
15246;SDS011;7726;48.820;9.248;2023-04-15T06:28:52;6.37;;;4.43;;
15246;SDS011;7726;48.820;9.248;2023-04-15T06:31:19;6.33;;;4.33;;
15246;SDS011;7726;48.820;9.248;2023-04-15T06:33:46;6.83;;;4.10;;
15246;SDS011;7726;48.820;9.248;2023-04-15T06:36:15;7.93;;;4.40;;
15246;SDS011;7726;48.820;9.248;2023-04-15T06:38:42;7.10;;;4.03;;
15246;SDS011;7726;48.820;9.248;2023-04-15T06:41:09;6.07;;;4.30;;
15246;SDS011;7726;48.820;9.248;2023-04-15T06:43:37;5.77;;;4.20;;
15246;SDS011;7726;48.820;9.248;2023-04-15T06:46:04;7.13;;;3.67;;
15246;SDS011;7726;48.820;9.248;2023-04-15T06:48:31;5.13;;;4.00;;
15246;SDS011;7726;48.820;9.248;2023-04-15T06:50:58;5.37;;;4.13;;
15246;SDS011;7726;48.820;9.248;2023-04-15T06:53:27;4.80;;;3.83;;
15246;SDS011;7726;48.820;9.248;2023-04-15T06:55:54;7.37;;;4.27;;
15246;SDS011;7726;48.820;9.248;2023-04-15T06:58:21;8.23;;;4.13;;
15246;SDS011;7726;48.820;9.248;2023-04-15T07:00:48;6.60;;;4.20;;
15246;SDS011;7726;48.820;9.248;2023-04-15T07:03:16;5.77;;;4.07;;
15246;SDS011;7726;48.820;9.248;2023-04-15T07:05:43;5.63;;;4.27;;
15246;SDS011;7726;48.820;9.248;2023-04-15T07:08:10;7.07;;;4.40;;
15246;SDS011;7726;48.820;9.248;2023-04-15T07:10:39;6.10;;;4.30;;
15246;SDS011;7726;48.820;9.248;2023-04-15T07:13:06;6.57;;;4.47;;
15246;SDS011;7726;48.820;9.248;2023-04-15T07:15:33;7.43;;;4.43;;
15246;SDS011;7726;48.820;9.248;2023-04-15T07:18:00;9.03;;;4.33;;
15246;SDS011;7726;48.820;9.248;2023-04-15T07:20:27;7.33;;;4.23;;
15246;SDS011;7726;48.820;9.248;2023-04-15T07:22:55;7.90;;;3.90;;
15246;SDS011;7726;48.820;9.248;2023-04-15T07:25:22;7.30;;;4.30;;
15246;SDS011;7726;48.820;9.248;2023-04-15T07:27:51;6.50;;;4.20;;
15246;SDS011;7726;48.820;9.248;2023-04-15T07:30:18;7.40;;;3.90;;
15246;SDS011;7726;48.820;9.248;2023-04-15T07:32:45;5.10;;;3.30;;
15246;SDS011;7726;48.820;9.248;2023-04-15T07:35:12;6.33;;;3.57;;
15246;SDS011;7726;48.820;9.248;2023-04-15T07:37:39;6.60;;;3.33;;
15246;SDS011;7726;48.820;9.248;2023-04-15T07:40:08;6.53;;;3.80;;
15246;SDS011;7726;48.820;9.248;2023-04-15T07:42:36;6.57;;;3.50;;
15246;SDS011;7726;48.820;9.248;2023-04-15T07:45:05;5.00;;;3.97;;
15246;SDS011;7726;48.820;9.248;2023-04-15T07:47:33;6.20;;;3.70;;
15246;SDS011;7726;48.820;9.248;2023-04-15T07:50:00;6.40;;;3.93;;
15246;SDS011;7726;48.820;9.248;2023-04-15T07:52:27;7.28;;;4.15;;
15246;SDS011;7726;48.820;9.248;2023-04-15T07:54:54;5.57;;;4.40;;
15246;SDS011;7726;48.820;9.248;2023-04-15T07:57:21;4.30;;;3.43;;
15246;SDS011;7726;48.820;9.248;2023-04-15T07:59:48;6.47;;;3.88;;
15246;SDS011;7726;48.820;9.248;2023-04-15T08:02:17;6.27;;;3.07;;
15246;SDS011;7726;48.820;9.248;2023-04-15T08:04:44;6.57;;;3.15;;
15246;SDS011;7726;48.820;9.248;2023-04-15T08:07:11;5.27;;;3.40;;
15246;SDS011;7726;48.820;9.248;2023-04-15T08:09:39;7.22;;;3.28;;
15246;SDS011;7726;48.820;9.248;2023-04-15T08:12:06;5.60;;;3.15;;
15246;SDS011;7726;48.820;9.248;2023-04-15T08:14:36;5.25;;;2.97;;
15246;SDS011;7726;48.820;9.248;2023-04-15T08:17:03;4.10;;;2.80;;
15246;SDS011;7726;48.820;9.248;2023-04-15T08:19:32;5.20;;;3.75;;
15246;SDS011;7726;48.820;9.248;2023-04-15T08:21:59;4.32;;;2.92;;
15246;SDS011;7726;48.820;9.248;2023-04-15T08:24:26;6.13;;;3.25;;
15246;SDS011;7726;48.820;9.248;2023-04-15T08:26:54;4.10;;;3.38;;
15246;SDS011;7726;48.820;9.248;2023-04-15T08:29:21;4.22;;;2.95;;
15246;SDS011;7726;48.820;9.248;2023-04-15T08:31:49;6.53;;;3.67;;
15246;SDS011;7726;48.820;9.248;2023-04-15T08:34:16;5.40;;;3.30;;
15246;SDS011;7726;48.820;9.248;2023-04-15T08:36:44;5.22;;;3.30;;
15246;SDS011;7726;48.820;9.248;2023-04-15T08:39:11;6.60;;;3.55;;
15246;SDS011;7726;48.820;9.248;2023-04-15T08:41:39;7.07;;;4.05;;
15246;SDS011;7726;48.820;9.248;2023-04-15T08:44:07;3.55;;;2.72;;
15246;SDS011;7726;48.820;9.248;2023-04-15T08:46:34;5.55;;;3.15;;
15246;SDS011;7726;48.820;9.248;2023-04-15T08:49:02;7.53;;;3.55;;
15246;SDS011;7726;48.820;9.248;2023-04-15T08:51:30;6.63;;;3.30;;
15246;SDS011;7726;48.820;9.248;2023-04-15T08:53:59;4.82;;;2.75;;
15246;SDS011;7726;48.820;9.248;2023-04-15T08:56:26;4.28;;;3.40;;
15246;SDS011;7726;48.820;9.248;2023-04-15T08:58:53;5.57;;;3.70;;
15246;SDS011;7726;48.820;9.248;2023-04-15T09:01:21;3.97;;;3.08;;
15246;SDS011;7726;48.820;9.248;2023-04-15T09:03:48;6.68;;;3.72;;
15246;SDS011;7726;48.820;9.248;2023-04-15T09:06:16;6.25;;;3.42;;
15246;SDS011;7726;48.820;9.248;2023-04-15T09:08:43;9.80;;;4.03;;
15246;SDS011;7726;48.820;9.248;2023-04-15T09:11:12;5.47;;;3.58;;
15246;SDS011;7726;48.820;9.248;2023-04-15T09:13:39;7.13;;;3.75;;
15246;SDS011;7726;48.820;9.248;2023-04-15T09:16:06;5.38;;;3.38;;
15246;SDS011;7726;48.820;9.248;2023-04-15T09:18:35;7.68;;;3.65;;
15246;SDS011;7726;48.820;9.248;2023-04-15T09:21:03;5.82;;;3.75;;
15246;SDS011;7726;48.820;9.248;2023-04-15T09:23:31;6.00;;;3.38;;
15246;SDS011;7726;48.820;9.248;2023-04-15T09:25:58;4.32;;;3.80;;
15246;SDS011;7726;48.820;9.248;2023-04-15T09:28:28;7.38;;;4.43;;
15246;SDS011;7726;48.820;9.248;2023-04-15T09:30:55;7.30;;;3.72;;
15246;SDS011;7726;48.820;9.248;2023-04-15T09:33:25;6.05;;;3.85;;
15246;SDS011;7726;48.820;9.248;2023-04-15T09:35:56;6.15;;;3.13;;
15246;SDS011;7726;48.820;9.248;2023-04-15T09:38:23;3.97;;;3.03;;
15246;SDS011;7726;48.820;9.248;2023-04-15T09:40:51;4.88;;;3.75;;
15246;SDS011;7726;48.820;9.248;2023-04-15T09:43:18;6.57;;;3.15;;
15246;SDS011;7726;48.820;9.248;2023-04-15T09:45:47;5.43;;;3.35;;
15246;SDS011;7726;48.820;9.248;2023-04-15T09:48:15;4.82;;;3.40;;
15246;SDS011;7726;48.820;9.248;2023-04-15T09:50:44;4.28;;;3.33;;
15246;SDS011;7726;48.820;9.248;2023-04-15T09:53:14;5.43;;;3.30;;
15246;SDS011;7726;48.820;9.248;2023-04-15T09:55:43;4.43;;;3.42;;
15246;SDS011;7726;48.820;9.248;2023-04-15T09:58:16;4.25;;;3.47;;
15246;SDS011;7726;48.820;9.248;2023-04-15T10:00:43;4.25;;;3.47;;
15246;SDS011;7726;48.820;9.248;2023-04-15T10:03:13;3.40;;;3.10;;
15246;SDS011;7726;48.820;9.248;2023-04-15T10:05:41;4.32;;;3.08;;
15246;SDS011;7726;48.820;9.248;2023-04-15T10:08:08;4.28;;;3.35;;
15246;SDS011;7726;48.820;9.248;2023-04-15T10:10:35;3.30;;;3.08;;
15246;SDS011;7726;48.820;9.248;2023-04-15T10:13:03;4.22;;;3.20;;
15246;SDS011;7726;48.820;9.248;2023-04-15T10:15:30;3.80;;;3.25;;
15246;SDS011;7726;48.820;9.248;2023-04-15T10:17:58;5.65;;;3.25;;
15246;SDS011;7726;48.820;9.248;2023-04-15T10:20:27;4.57;;;2.70;;
15246;SDS011;7726;48.820;9.248;2023-04-15T10:22:54;5.60;;;2.95;;
15246;SDS011;7726;48.820;9.248;2023-04-15T10:25:22;4.75;;;3.25;;
15246;SDS011;7726;48.820;9.248;2023-04-15T10:27:50;3.20;;;2.80;;
15246;SDS011;7726;48.820;9.248;2023-04-15T10:30:18;5.53;;;2.60;;
15246;SDS011;7726;48.820;9.248;2023-04-15T10:32:45;3.63;;;2.60;;
15246;SDS011;7726;48.820;9.248;2023-04-15T10:35:12;2.90;;;2.30;;
15246;SDS011;7726;48.820;9.248;2023-04-15T10:37:41;2.22;;;1.90;;
15246;SDS011;7726;48.820;9.248;2023-04-15T10:40:22;2.30;;;2.10;;
15246;SDS011;7726;48.820;9.248;2023-04-15T10:42:50;3.53;;;2.40;;
15246;SDS011;7726;48.820;9.248;2023-04-15T10:45:17;4.15;;;2.53;;
15246;SDS011;7726;48.820;9.248;2023-04-15T10:47:44;3.60;;;2.95;;
15246;SDS011;7726;48.820;9.248;2023-04-15T10:50:12;4.28;;;2.70;;
15246;SDS011;7726;48.820;9.248;2023-04-15T10:52:39;3.30;;;2.97;;
15246;SDS011;7726;48.820;9.248;2023-04-15T10:55:14;7.38;;;3.10;;
15246;SDS011;7726;48.820;9.248;2023-04-15T10:57:43;6.38;;;3.22;;
15246;SDS011;7726;48.820;9.248;2023-04-15T11:00:11;3.30;;;2.50;;
15246;SDS011;7726;48.820;9.248;2023-04-15T11:02:42;5.82;;;3.65;;
15246;SDS011;7726;48.820;9.248;2023-04-15T11:05:10;4.20;;;3.17;;
15246;SDS011;7726;48.820;9.248;2023-04-15T11:07:38;3.72;;;2.85;;
15246;SDS011;7726;48.820;9.248;2023-04-15T11:12:55;4.00;;;3.42;;
15246;SDS011;7726;48.820;9.248;2023-04-15T11:15:26;3.70;;;2.88;;
15246;SDS011;7726;48.820;9.248;2023-04-15T11:17:54;4.82;;;3.15;;
15246;SDS011;7726;48.820;9.248;2023-04-15T11:20:22;3.65;;;3.20;;
15246;SDS011;7726;48.820;9.248;2023-04-15T11:22:49;4.10;;;3.75;;
15246;SDS011;7726;48.820;9.248;2023-04-15T11:25:22;5.85;;;3.50;;
15246;SDS011;7726;48.820;9.248;2023-04-15T11:27:50;5.30;;;3.75;;
15246;SDS011;7726;48.820;9.248;2023-04-15T11:30:20;4.63;;;3.47;;
15246;SDS011;7726;48.820;9.248;2023-04-15T11:32:48;3.90;;;3.50;;
15246;SDS011;7726;48.820;9.248;2023-04-15T11:35:15;5.22;;;3.80;;
15246;SDS011;7726;48.820;9.248;2023-04-15T11:37:42;5.40;;;4.22;;
15246;SDS011;7726;48.820;9.248;2023-04-15T11:40:10;6.68;;;3.97;;
15246;SDS011;7726;48.820;9.248;2023-04-15T11:42:37;4.75;;;3.78;;
15246;SDS011;7726;48.820;9.248;2023-04-15T11:45:05;5.53;;;4.10;;
15246;SDS011;7726;48.820;9.248;2023-04-15T11:47:34;5.18;;;3.60;;
15246;SDS011;7726;48.820;9.248;2023-04-15T11:52:50;4.47;;;3.20;;
15246;SDS011;7726;48.820;9.248;2023-04-15T11:55:18;4.10;;;3.00;;
15246;SDS011;7726;48.820;9.248;2023-04-15T11:57:45;4.03;;;2.97;;
15246;SDS011;7726;48.820;9.248;2023-04-15T12:00:12;5.10;;;3.10;;
15246;SDS011;7726;48.820;9.248;2023-04-15T12:02:42;3.63;;;2.85;;
15246;SDS011;7726;48.820;9.248;2023-04-15T12:05:09;2.80;;;2.50;;
15246;SDS011;7726;48.820;9.248;2023-04-15T12:10:23;2.33;;;2.13;;
15246;SDS011;7726;48.820;9.248;2023-04-15T12:12:51;5.45;;;2.80;;
15246;SDS011;7726;48.820;9.248;2023-04-15T12:15:20;2.55;;;2.20;;
15246;SDS011;7726;48.820;9.248;2023-04-15T12:17:49;4.60;;;2.88;;
15246;SDS011;7726;48.820;9.248;2023-04-15T12:20:20;4.68;;;2.42;;
15246;SDS011;7726;48.820;9.248;2023-04-15T12:22:47;2.97;;;2.35;;
15246;SDS011;7726;48.820;9.248;2023-04-15T12:25:14;5.50;;;3.25;;
15246;SDS011;7726;48.820;9.248;2023-04-15T12:27:49;3.17;;;2.70;;
15246;SDS011;7726;48.820;9.248;2023-04-15T12:30:16;3.53;;;2.25;;
15246;SDS011;7726;48.820;9.248;2023-04-15T12:32:43;3.88;;;2.97;;
15246;SDS011;7726;48.820;9.248;2023-04-15T12:35:13;3.30;;;3.00;;
15246;SDS011;7726;48.820;9.248;2023-04-15T12:37:40;4.00;;;3.00;;
15246;SDS011;7726;48.820;9.248;2023-04-15T12:40:07;3.30;;;2.87;;
15246;SDS011;7726;48.820;9.248;2023-04-15T12:42:35;3.63;;;2.33;;
15246;SDS011;7726;48.820;9.248;2023-04-15T12:45:02;4.43;;;3.10;;
15246;SDS011;7726;48.820;9.248;2023-04-15T12:47:29;4.67;;;2.63;;
15246;SDS011;7726;48.820;9.248;2023-04-15T12:49:56;4.80;;;3.17;;
15246;SDS011;7726;48.820;9.248;2023-04-15T12:52:25;2.73;;;2.03;;
15246;SDS011;7726;48.820;9.248;2023-04-15T12:54:52;4.17;;;2.97;;
15246;SDS011;7726;48.820;9.248;2023-04-15T12:57:19;4.33;;;2.20;;
15246;SDS011;7726;48.820;9.248;2023-04-15T12:59:46;2.73;;;2.20;;
15246;SDS011;7726;48.820;9.248;2023-04-15T13:02:13;3.53;;;2.50;;
15246;SDS011;7726;48.820;9.248;2023-04-15T13:04:41;3.80;;;2.07;;
15246;SDS011;7726;48.820;9.248;2023-04-15T13:07:10;4.23;;;2.80;;
15246;SDS011;7726;48.820;9.248;2023-04-15T13:09:40;2.30;;;2.10;;
15246;SDS011;7726;48.820;9.248;2023-04-15T13:12:08;3.57;;;2.07;;
15246;SDS011;7726;48.820;9.248;2023-04-15T13:14:35;3.30;;;2.47;;
15246;SDS011;7726;48.820;9.248;2023-04-15T13:17:02;2.90;;;2.20;;
15246;SDS011;7726;48.820;9.248;2023-04-15T13:19:34;2.30;;;2.10;;
15246;SDS011;7726;48.820;9.248;2023-04-15T13:22:01;3.43;;;2.43;;
15246;SDS011;7726;48.820;9.248;2023-04-15T13:24:28;3.07;;;2.33;;
15246;SDS011;7726;48.820;9.248;2023-04-15T13:26:57;3.60;;;2.47;;
15246;SDS011;7726;48.820;9.248;2023-04-15T13:29:24;2.50;;;2.37;;
15246;SDS011;7726;48.820;9.248;2023-04-15T13:31:51;3.37;;;2.30;;
15246;SDS011;7726;48.820;9.248;2023-04-15T13:34:18;5.67;;;2.20;;
15246;SDS011;7726;48.820;9.248;2023-04-15T13:36:45;2.37;;;1.70;;
15246;SDS011;7726;48.820;9.248;2023-04-15T13:39:13;1.93;;;1.63;;
15246;SDS011;7726;48.820;9.248;2023-04-15T13:41:40;2.03;;;1.20;;
15246;SDS011;7726;48.820;9.248;2023-04-15T13:44:08;1.73;;;1.30;;
15246;SDS011;7726;48.820;9.248;2023-04-15T13:46:36;1.40;;;1.30;;
15246;SDS011;7726;48.820;9.248;2023-04-15T13:49:04;0.63;;;0.63;;
15246;SDS011;7726;48.820;9.248;2023-04-15T13:51:31;1.10;;;0.90;;
15246;SDS011;7726;48.820;9.248;2023-04-15T13:54:00;1.53;;;0.83;;
15246;SDS011;7726;48.820;9.248;2023-04-15T13:56:27;2.37;;;0.87;;
15246;SDS011;7726;48.820;9.248;2023-04-15T13:58:54;2.30;;;1.03;;
15246;SDS011;7726;48.820;9.248;2023-04-15T14:01:24;1.10;;;0.97;;
15246;SDS011;7726;48.820;9.248;2023-04-15T14:03:52;1.10;;;0.80;;
15246;SDS011;7726;48.820;9.248;2023-04-15T14:06:19;2.67;;;1.00;;
15246;SDS011;7726;48.820;9.248;2023-04-15T14:08:46;4.03;;;1.00;;
15246;SDS011;7726;48.820;9.248;2023-04-15T14:11:13;0.70;;;0.70;;
15246;SDS011;7726;48.820;9.248;2023-04-15T14:13:40;1.80;;;0.80;;
15246;SDS011;7726;48.820;9.248;2023-04-15T14:16:07;2.33;;;0.97;;
15246;SDS011;7726;48.820;9.248;2023-04-15T14:18:36;1.07;;;0.80;;
15246;SDS011;7726;48.820;9.248;2023-04-15T14:21:04;1.30;;;1.20;;
15246;SDS011;7726;48.820;9.248;2023-04-15T14:23:31;2.47;;;1.10;;
15246;SDS011;7726;48.820;9.248;2023-04-15T14:25:58;2.00;;;1.00;;
15246;SDS011;7726;48.820;9.248;2023-04-15T14:28:25;1.40;;;1.20;;
15246;SDS011;7726;48.820;9.248;2023-04-15T14:30:53;1.23;;;1.07;;
15246;SDS011;7726;48.820;9.248;2023-04-15T14:33:20;1.10;;;1.10;;
15246;SDS011;7726;48.820;9.248;2023-04-15T14:35:49;1.80;;;1.00;;
15246;SDS011;7726;48.820;9.248;2023-04-15T14:38:17;1.20;;;1.10;;
15246;SDS011;7726;48.820;9.248;2023-04-15T14:40:46;2.43;;;0.90;;
15246;SDS011;7726;48.820;9.248;2023-04-15T14:43:13;1.47;;;0.90;;
15246;SDS011;7726;48.820;9.248;2023-04-15T14:45:41;3.40;;;1.08;;
15246;SDS011;7726;48.820;9.248;2023-04-15T14:48:08;1.80;;;1.10;;
15246;SDS011;7726;48.820;9.248;2023-04-15T14:50:36;0.90;;;0.90;;
15246;SDS011;7726;48.820;9.248;2023-04-15T14:53:05;1.07;;;0.87;;
15246;SDS011;7726;48.820;9.248;2023-04-15T14:55:32;1.00;;;0.90;;
15246;SDS011;7726;48.820;9.248;2023-04-15T14:57:59;0.70;;;0.70;;
15246;SDS011;7726;48.820;9.248;2023-04-15T15:00:27;1.08;;;0.70;;
15246;SDS011;7726;48.820;9.248;2023-04-15T15:02:54;1.23;;;0.90;;
15246;SDS011;7726;48.820;9.248;2023-04-15T15:05:21;3.47;;;1.00;;
15246;SDS011;7726;48.820;9.248;2023-04-15T15:07:48;1.73;;;1.10;;
15246;SDS011;7726;48.820;9.248;2023-04-15T15:10:17;1.00;;;1.00;;